Time;durP1;ratioP1;P1;durP2;ratioP2;P2;SDS_P1;SDS_P2;PMS_P1;PMS_P2;Temp;Humidity;BMP_temperature;BMP_pressure;BME280_temperature;BME280_humidity;BME280_pressure;Samples;Min_cycle;Max_cycle;Signal;HPM_P1;HPM_P2
2021/10/30 00:00:28;;;;;;;5.25;3.00;;;22.90;54.50;;;;;;5195220;28;20049;-70
2021/10/30 00:03:00;;;;;;;7.40;2.95;;;22.90;54.50;;;;;;5201237;28;20045;-72
2021/10/30 00:05:33;;;;;;;5.22;3.10;;;22.90;54.40;;;;;;5204882;28;20046;-71
2021/10/30 00:08:05;;;;;;;8.65;3.50;;;22.90;54.00;;;;;;5200124;28;20586;-72
2021/10/30 00:10:38;;;;;;;13.30;3.55;;;22.90;53.70;;;;;;5204985;28;20639;-71
2021/10/30 00:13:11;;;;;;;6.05;2.85;;;22.80;53.30;;;;;;5202918;28;20040;-72
2021/10/30 00:15:44;;;;;;;7.27;3.50;;;22.80;53.20;;;;;;5202015;28;20820;-71
2021/10/30 00:18:16;;;;;;;7.90;3.17;;;22.80;53.10;;;;;;5199621;28;20057;-71
2021/10/30 00:20:48;;;;;;;7.57;3.65;;;22.80;52.90;;;;;;5206881;28;20516;-71
2021/10/30 00:23:21;;;;;;;9.95;3.47;;;22.80;52.70;;;;;;5202989;28;20053;-73
2021/10/30 00:25:53;;;;;;;6.45;3.10;;;22.80;52.60;;;;;;5206404;28;20423;-72
2021/10/30 00:28:25;;;;;;;12.05;4.95;;;22.80;52.60;;;;;;5205629;28;20045;-71
2021/10/30 00:30:58;;;;;;;9.25;3.30;;;22.80;52.40;;;;;;5206150;28;20056;-71
2021/10/30 00:33:31;;;;;;;6.88;2.90;;;22.70;52.40;;;;;;5207305;28;20049;-72
2021/10/30 00:36:03;;;;;;;5.10;2.70;;;22.70;52.40;;;;;;5207019;28;20056;-72
2021/10/30 00:38:36;;;;;;;5.27;2.90;;;22.70;52.40;;;;;;5201492;28;20065;-71
2021/10/30 00:41:09;;;;;;;7.73;3.23;;;22.70;52.20;;;;;;5204451;28;20097;-71
2021/10/30 00:43:42;;;;;;;7.95;2.88;;;22.70;52.20;;;;;;5205017;28;20045;-71
2021/10/30 00:46:16;;;;;;;5.45;3.30;;;22.70;52.20;;;;;;5205868;28;20488;-71
2021/10/30 00:48:48;;;;;;;5.13;3.00;;;22.70;52.10;;;;;;5206138;28;20050;-72
2021/10/30 00:51:20;;;;;;;6.30;2.50;;;22.70;52.10;;;;;;5204810;28;20505;-71
2021/10/30 00:53:53;;;;;;;7.32;2.78;;;22.70;52.00;;;;;;5206779;28;20045;-72
2021/10/30 00:56:29;;;;;;;3.40;2.47;;;22.70;52.00;;;;;;5205856;28;20571;-71
2021/10/30 00:59:04;;;;;;;4.40;2.50;;;22.60;51.90;;;;;;5205771;28;20053;-72
2021/10/30 01:01:41;;;;;;;5.38;2.92;;;22.60;51.90;;;;;;5203835;28;20405;-72
2021/10/30 01:04:14;;;;;;;5.00;2.65;;;22.60;51.90;;;;;;5207888;28;20049;-72
2021/10/30 01:06:49;;;;;;;6.03;2.38;;;22.60;51.90;;;;;;5205942;28;20052;-71
2021/10/30 01:09:22;;;;;;;3.45;2.80;;;22.60;51.80;;;;;;5204271;28;20045;-71
2021/10/30 01:11:54;;;;;;;6.03;2.45;;;22.60;51.80;;;;;;5206408;28;20049;-71
2021/10/30 01:14:28;;;;;;;3.28;2.58;;;22.60;51.80;;;;;;5201794;28;20091;-71
2021/10/30 01:17:06;;;;;;;4.82;2.47;;;22.60;51.80;;;;;;5203803;28;20048;-71
2021/10/30 01:19:38;;;;;;;3.67;2.70;;;22.60;51.80;;;;;;5201991;28;20045;-71
2021/10/30 01:22:10;;;;;;;3.65;3.10;;;22.60;51.80;;;;;;5205833;28;20097;-73
2021/10/30 01:24:43;;;;;;;3.35;2.58;;;22.50;51.70;;;;;;5202659;28;20068;-71
2021/10/30 01:27:16;;;;;;;3.50;2.70;;;22.50;51.70;;;;;;5200520;28;20413;-71
2021/10/30 01:29:50;;;;;;;;;;;22.50;51.80;;;;;;5204704;28;20041;-72
2021/10/30 01:32:22;;;;;;;3.33;2.60;;;22.50;52.10;;;;;;5207725;28;19925;-71
2021/10/30 01:34:54;;;;;;;3.60;2.63;;;22.50;51.90;;;;;;5202999;28;20472;-72
2021/10/30 01:37:27;;;;;;;3.83;3.10;;;22.50;51.90;;;;;;5199123;28;20083;-72
2021/10/30 01:39:59;;;;;;;7.60;3.08;;;22.50;51.80;;;;;;5201048;28;20060;-73
2021/10/30 01:42:31;;;;;;;5.47;2.83;;;22.50;51.80;;;;;;5201119;28;20903;-72
2021/10/30 01:45:04;;;;;;;3.75;2.47;;;22.50;51.80;;;;;;5200982;28;20061;-72
2021/10/30 01:47:36;;;;;;;5.45;2.88;;;22.50;51.80;;;;;;5203188;28;20052;-72
2021/10/30 01:50:12;;;;;;;5.32;2.65;;;22.50;51.80;;;;;;5200317;28;20060;-72
2021/10/30 01:52:46;;;;;;;3.40;2.40;;;22.50;51.80;;;;;;5201536;28;20049;-72
2021/10/30 01:55:21;;;;;;;2.95;2.60;;;22.50;51.80;;;;;;5198951;28;20056;-71
2021/10/30 01:57:53;;;;;;;3.15;2.40;;;22.40;51.80;;;;;;5201878;28;20557;-71
2021/10/30 02:00:26;;;;;;;4.07;3.00;;;22.50;51.70;;;;;;5200068;28;20670;-72
2021/10/30 02:02:59;;;;;;;4.20;2.72;;;22.50;51.80;;;;;;5200497;28;20041;-73
2021/10/30 02:05:32;;;;;;;5.00;2.75;;;22.50;51.70;;;;;;5201853;28;20339;-73
2021/10/30 02:08:05;;;;;;;2.97;2.70;;;22.40;51.70;;;;;;5184291;28;20075;-72
2021/10/30 02:10:37;;;;;;;3.25;2.53;;;22.40;51.70;;;;;;5201409;28;20045;-72
2021/10/30 02:13:10;;;;;;;4.82;3.13;;;22.40;51.70;;;;;;5196630;28;20048;-72
2021/10/30 02:15:42;;;;;;;4.05;3.03;;;22.40;51.70;;;;;;5199574;28;20061;-72
2021/10/30 02:18:15;;;;;;;3.95;2.83;;;22.40;51.60;;;;;;5196610;28;20070;-73
2021/10/30 02:20:47;;;;;;;2.83;2.40;;;22.40;51.60;;;;;;5195641;28;20045;-71
2021/10/30 02:23:20;;;;;;;4.00;2.63;;;22.40;51.70;;;;;;5198468;28;20662;-73
2021/10/30 02:25:52;;;;;;;3.13;2.83;;;22.40;51.70;;;;;;5195213;28;20299;-71
2021/10/30 02:28:25;;;;;;;3.33;2.67;;;22.40;51.70;;;;;;5192787;28;20059;-72
2021/10/30 02:30:57;;;;;;;3.08;2.47;;;22.50;51.70;;;;;;5196370;28;20049;-70
2021/10/30 02:33:30;;;;;;;4.75;3.10;;;22.40;51.70;;;;;;5196441;28;20050;-70
2021/10/30 02:36:03;;;;;;;3.70;2.67;;;22.40;51.80;;;;;;5193867;28;20041;-71
2021/10/30 02:38:35;;;;;;;3.13;2.83;;;22.40;51.90;;;;;;5200478;28;20064;-71
2021/10/30 02:41:07;;;;;;;5.13;2.33;;;22.40;51.90;;;;;;5200864;28;20052;-72
2021/10/30 02:43:40;;;;;;;3.10;2.55;;;22.40;51.90;;;;;;5199344;28;20038;-72
2021/10/30 02:46:12;;;;;;;3.25;2.60;;;22.40;52.00;;;;;;5204758;28;20049;-72
2021/10/30 02:48:44;;;;;;;4.13;2.80;;;22.40;52.10;;;;;;5198350;28;20042;-71
2021/10/30 02:51:17;;;;;;;4.00;2.50;;;22.40;52.10;;;;;;5195379;28;20405;-70
2021/10/30 02:53:50;;;;;;;3.25;2.45;;;22.40;52.10;;;;;;5197208;28;20037;-71
2021/10/30 02:56:22;;;;;;;3.47;2.83;;;22.40;52.20;;;;;;5198837;28;20045;-71
2021/10/30 02:58:55;;;;;;;4.10;2.55;;;22.40;52.20;;;;;;5198208;28;20056;-72
2021/10/30 03:01:27;;;;;;;5.57;2.67;;;22.40;52.30;;;;;;5197695;28;20041;-71
2021/10/30 03:04:00;;;;;;;2.78;2.47;;;22.40;52.30;;;;;;5200543;28;20762;-71
2021/10/30 03:06:33;;;;;;;6.00;2.90;;;22.40;52.40;;;;;;5200618;28;20471;-71
2021/10/30 03:09:05;;;;;;;4.07;2.60;;;22.40;52.40;;;;;;5205533;28;20048;-71
2021/10/30 03:11:37;;;;;;;4.25;2.30;;;22.40;52.50;;;;;;5206245;28;20056;-72
2021/10/30 03:14:10;;;;;;;3.90;2.72;;;22.50;52.70;;;;;;5204829;28;20049;-71
2021/10/30 03:16:43;;;;;;;11.02;2.20;;;22.40;52.60;;;;;;5206717;28;20053;-71
2021/10/30 03:19:15;;;;;;;4.57;2.30;;;22.40;52.70;;;;;;5203827;28;20049;-71
2021/10/30 03:21:47;;;;;;;4.18;2.60;;;22.40;52.70;;;;;;5203822;28;20048;-70
2021/10/30 03:24:22;;;;;;;4.47;2.72;;;22.40;52.80;;;;;;5202648;28;20041;-71
2021/10/30 03:26:54;;;;;;;8.02;2.70;;;22.40;52.80;;;;;;5202775;28;20072;-71
2021/10/30 03:29:27;;;;;;;5.70;2.47;;;22.40;52.90;;;;;;5201241;28;20038;-71
2021/10/30 03:31:59;;;;;;;5.90;2.92;;;22.40;52.90;;;;;;5202803;28;20218;-71
2021/10/30 03:34:31;;;;;;;6.68;2.97;;;22.40;53.00;;;;;;5199012;28;20049;-71
2021/10/30 03:37:04;;;;;;;2.83;2.20;;;22.40;53.00;;;;;;5204231;28;20046;-71
2021/10/30 03:39:37;;;;;;;7.18;3.25;;;22.40;53.00;;;;;;5199967;28;20509;-71
2021/10/30 03:42:09;;;;;;;14.07;3.10;;;22.40;53.00;;;;;;5203987;28;20037;-71
2021/10/30 03:44:42;;;;;;;5.57;2.47;;;22.40;53.10;;;;;;5202723;28;20049;-72
2021/10/30 03:47:14;;;;;;;6.30;2.85;;;22.40;53.10;;;;;;5201099;28;20037;-71
2021/10/30 03:49:47;;;;;;;9.57;2.92;;;22.40;53.10;;;;;;5201533;28;20060;-72
2021/10/30 03:52:19;;;;;;;7.22;3.53;;;22.40;53.20;;;;;;5204493;28;20048;-71
2021/10/30 03:54:53;;;;;;;9.75;3.40;;;22.40;53.20;;;;;;5201336;28;20052;-71
2021/10/30 03:57:26;;;;;;;8.85;3.10;;;22.40;53.30;;;;;;5201842;28;20040;-71
2021/10/30 03:59:59;;;;;;;6.43;2.53;;;22.40;53.30;;;;;;5202251;28;20813;-72
2021/10/30 04:02:31;;;;;;;10.40;3.08;;;22.40;53.30;;;;;;5201436;28;20048;-72
2021/10/30 04:05:04;;;;;;;9.80;2.87;;;22.40;53.30;;;;;;5199246;28;20595;-71
2021/10/30 04:07:37;;;;;;;8.95;3.10;;;22.40;53.40;;;;;;5204976;28;20053;-72
2021/10/30 04:10:10;;;;;;;5.88;2.70;;;22.40;53.40;;;;;;5205319;28;20670;-72
2021/10/30 04:12:42;;;;;;;8.98;2.60;;;22.40;53.40;;;;;;5206814;28;20460;-71
2021/10/30 04:15:15;;;;;;;5.50;2.70;;;22.40;53.50;;;;;;5200182;28;20409;-73
2021/10/30 04:17:47;;;;;;;8.45;3.05;;;22.40;53.50;;;;;;5202423;28;20128;-72
2021/10/30 04:20:19;;;;;;;9.30;3.20;;;22.40;53.50;;;;;;5201190;28;20057;-72
2021/10/30 04:22:51;;;;;;;9.10;2.80;;;22.40;53.50;;;;;;5204152;28;20596;-71
2021/10/30 04:25:24;;;;;;;7.57;3.60;;;22.40;53.60;;;;;;5203385;28;20118;-71
2021/10/30 04:27:56;;;;;;;8.70;2.90;;;22.40;53.60;;;;;;5202446;28;20054;-71
2021/10/30 04:30:29;;;;;;;8.80;2.55;;;22.40;53.60;;;;;;5202531;28;20052;-71
2021/10/30 04:33:02;;;;;;;7.85;2.70;;;22.40;53.60;;;;;;5199901;28;20060;-71
2021/10/30 04:35:38;;;;;;;6.53;2.53;;;22.40;53.60;;;;;;5202693;28;20067;-71
2021/10/30 04:38:11;;;;;;;6.55;2.28;;;22.40;53.60;;;;;;5202682;28;20057;-71
2021/10/30 04:40:43;;;;;;;6.20;2.55;;;22.40;53.60;;;;;;5201133;28;20056;-72
2021/10/30 04:43:15;;;;;;;5.32;2.40;;;22.50;53.70;;;;;;5201721;28;20037;-72
2021/10/30 04:45:48;;;;;;;6.22;2.50;;;22.50;53.60;;;;;;5198372;28;20033;-71
2021/10/30 04:48:20;;;;;;;3.33;2.28;;;22.50;53.70;;;;;;5197923;28;20044;-71
2021/10/30 04:50:53;;;;;;;5.38;2.58;;;22.50;53.60;;;;;;5201659;28;20488;-71
2021/10/30 04:53:25;;;;;;;3.70;2.38;;;22.50;53.60;;;;;;5198594;28;20447;-71
2021/10/30 04:55:57;;;;;;;5.05;2.33;;;22.50;53.60;;;;;;5200995;28;20049;-71
2021/10/30 04:58:30;;;;;;;6.97;2.95;;;22.50;53.60;;;;;;5196272;28;20412;-71
2021/10/30 05:01:03;;;;;;;5.32;2.60;;;22.60;53.60;;;;;;5199801;28;20041;-74
2021/10/30 05:03:35;;;;;;;6.13;2.38;;;22.60;53.60;;;;;;5201169;28;20506;-72
2021/10/30 05:06:10;;;;;;;9.70;2.47;;;22.60;53.60;;;;;;5200976;28;20064;-72
2021/10/30 05:08:42;;;;;;;10.68;2.30;;;22.60;53.70;;;;;;5200687;28;20521;-71
2021/10/30 05:11:14;;;;;;;10.43;2.50;;;22.60;53.70;;;;;;5197037;28;20417;-72
2021/10/30 05:13:47;;;;;;;13.55;2.67;;;22.60;53.70;;;;;;5200772;28;20060;-72
2021/10/30 05:16:19;;;;;;;8.18;3.25;;;22.70;53.80;;;;;;5200668;28;20053;-71
2021/10/30 05:18:51;;;;;;;6.38;3.10;;;22.70;53.80;;;;;;5197864;28;20045;-72
2021/10/30 05:21:24;;;;;;;11.63;3.20;;;22.70;53.80;;;;;;5200163;28;20045;-71
2021/10/30 05:23:57;;;;;;;9.88;3.45;;;22.70;53.80;;;;;;5178642;28;20048;-71
2021/10/30 05:26:29;;;;;;;12.97;2.63;;;22.70;53.90;;;;;;5199017;28;20036;-72
2021/10/30 05:29:01;;;;;;;7.50;2.30;;;22.70;53.80;;;;;;5199823;28;20299;-72
2021/10/30 05:31:34;;;;;;;10.40;2.72;;;22.70;53.80;;;;;;5199898;28;20041;-72
2021/10/30 05:34:10;;;;;;;6.35;3.00;;;22.70;53.80;;;;;;5186530;28;20048;-71
2021/10/30 05:37:01;;;;;;;8.18;2.50;;;22.70;53.90;;;;;;5187842;28;20080;-71
2021/10/30 05:39:42;;;;;;;12.25;2.80;;;22.70;53.80;;;;;;5189685;28;20055;-73
2021/10/30 05:42:16;;;;;;;5.97;2.42;;;22.70;53.80;;;;;;5184097;28;20049;-71
2021/10/30 05:44:49;;;;;;;8.70;2.38;;;22.70;53.80;;;;;;5190030;28;20045;-72
2021/10/30 05:47:21;;;;;;;9.57;2.73;;;22.80;53.90;;;;;;5183932;28;20051;-71
2021/10/30 05:49:54;;;;;;;10.02;2.80;;;22.70;53.80;;;;;;5185069;28;20033;-73
2021/10/30 05:52:26;;;;;;;9.57;2.80;;;22.80;53.90;;;;;;5183580;28;22193;-72
2021/10/30 05:54:59;;;;;;;9.50;2.90;;;22.80;53.90;;;;;;5186697;28;20048;-71
2021/10/30 05:57:32;;;;;;;6.43;2.95;;;22.80;53.90;;;;;;5185476;28;20049;-72
2021/10/30 06:00:05;;;;;;;10.38;3.20;;;22.80;53.90;;;;;;5169980;28;20048;-71
2021/10/30 06:02:43;;;;;;;9.82;2.63;;;22.80;53.90;;;;;;5183367;28;20055;-70
2021/10/30 06:05:16;;;;;;;6.10;2.72;;;22.80;53.90;;;;;;5180922;28;20616;-73
2021/10/30 06:07:48;;;;;;;13.70;2.88;;;22.80;53.90;;;;;;5188398;28;20400;-73
2021/10/30 06:10:21;;;;;;;7.22;2.83;;;22.80;54.00;;;;;;5190888;28;20527;-72
2021/10/30 06:12:53;;;;;;;6.07;2.78;;;22.80;54.00;;;;;;5188092;28;20052;-71
2021/10/30 06:15:25;;;;;;;6.68;2.85;;;22.80;54.00;;;;;;5181185;28;20793;-73
2021/10/30 06:17:58;;;;;;;11.32;3.17;;;22.80;53.90;;;;;;5183228;28;20073;-72
2021/10/30 06:20:30;;;;;;;6.07;2.38;;;22.80;53.90;;;;;;5185772;28;20060;-72
2021/10/30 06:23:03;;;;;;;11.55;2.20;;;22.80;53.90;;;;;;5189243;28;20041;-71
2021/10/30 06:25:36;;;;;;;8.07;2.85;;;22.80;54.00;;;;;;5183570;28;20053;-71
2021/10/30 06:28:08;;;;;;;10.40;2.60;;;22.80;53.90;;;;;;5187460;28;20089;-71
2021/10/30 06:30:40;;;;;;;8.52;2.50;;;22.90;53.90;;;;;;5180426;28;20041;-71
2021/10/30 06:33:13;;;;;;;7.25;2.65;;;22.90;53.90;;;;;;5185227;28;20045;-71
2021/10/30 06:35:46;;;;;;;10.85;2.60;;;22.90;54.00;;;;;;5197543;28;20678;-71
2021/10/30 06:38:19;;;;;;;19.67;2.78;;;22.90;54.00;;;;;;5195696;28;20095;-71
2021/10/30 06:40:51;;;;;;;12.57;2.90;;;22.90;54.00;;;;;;5197315;28;20056;-72
2021/10/30 06:43:23;;;;;;;9.63;2.55;;;22.90;54.10;;;;;;5195561;28;20052;-71
2021/10/30 06:45:56;;;;;;;11.75;2.45;;;22.90;54.10;;;;;;5197682;28;20032;-72
2021/10/30 06:48:28;;;;;;;6.63;2.97;;;22.90;54.00;;;;;;5198154;28;20056;-72
2021/10/30 06:51:00;;;;;;;6.07;2.50;;;22.90;54.00;;;;;;5200382;28;20521;-72
2021/10/30 06:53:33;;;;;;;6.93;2.85;;;22.90;54.00;;;;;;5194719;28;20061;-72
2021/10/30 06:56:07;;;;;;;13.95;2.65;;;22.90;54.00;;;;;;5199310;28;20060;-72
2021/10/30 06:58:41;;;;;;;10.70;2.80;;;22.90;53.90;;;;;;5192957;28;20049;-71
2021/10/30 07:01:16;;;;;;;4.75;2.58;;;22.90;54.00;;;;;;5196738;28;20049;-71
2021/10/30 07:03:49;;;;;;;11.55;2.65;;;22.90;54.00;;;;;;5193063;28;21329;-70
2021/10/30 07:06:23;;;;;;;12.15;3.10;;;22.90;54.00;;;;;;5200301;28;20056;-71
2021/10/30 07:08:56;;;;;;;17.45;3.92;;;22.90;54.10;;;;;;5196923;28;20046;-71
2021/10/30 07:11:29;;;;;;;11.40;2.72;;;22.90;54.10;;;;;;5197767;28;20053;-71
2021/10/30 07:14:01;;;;;;;19.08;3.45;;;22.90;54.20;;;;;;5195872;28;20053;-72
2021/10/30 07:16:33;;;;;;;11.90;3.38;;;22.90;54.20;;;;;;5196273;28;20052;-72
2021/10/30 07:19:06;;;;;;;15.23;3.20;;;22.90;54.20;;;;;;5195920;28;20048;-72
2021/10/30 07:21:38;;;;;;;13.52;3.42;;;22.90;54.30;;;;;;5192164;28;20049;-72
2021/10/30 07:24:10;;;;;;;22.27;4.13;;;23.00;54.30;;;;;;5192658;28;20413;-71
2021/10/30 07:26:43;;;;;;;16.25;3.65;;;23.00;54.50;;;;;;5191086;28;20049;-71
2021/10/30 07:29:15;;;;;;;15.35;3.33;;;23.00;54.40;;;;;;5193555;28;20036;-71
2021/10/30 07:31:47;;;;;;;14.05;3.50;;;22.90;53.90;;;;;;5197931;28;20053;-72
2021/10/30 07:34:20;;;;;;;8.48;3.17;;;22.90;53.30;;;;;;5188802;28;20241;-73
2021/10/30 07:36:52;;;;;;;10.20;2.80;;;22.90;53.10;;;;;;5184428;28;21076;-72
2021/10/30 07:39:24;;;;;;;13.93;3.30;;;22.90;52.80;;;;;;5189980;28;20372;-72
2021/10/30 07:41:57;;;;;;;6.90;2.55;;;22.90;52.80;;;;;;5184332;28;20049;-71
2021/10/30 07:44:29;;;;;;;5.32;3.15;;;22.90;52.70;;;;;;5159814;28;20053;-72
2021/10/30 07:47:02;;;;;;;8.75;2.88;;;22.90;52.40;;;;;;5195630;28;20075;-71
2021/10/30 07:49:35;;;;;;;5.30;3.27;;;22.90;52.50;;;;;;5196155;28;20306;-71
2021/10/30 07:52:10;;;;;;;7.60;3.13;;;22.90;52.60;;;;;;5195256;28;20056;-71
2021/10/30 07:54:42;;;;;;;8.30;2.33;;;22.90;52.60;;;;;;5191687;28;20049;-72
2021/10/30 07:57:15;;;;;;;8.52;3.75;;;22.90;52.50;;;;;;5189569;28;20067;-71
2021/10/30 07:59:50;;;;;;;11.67;3.00;;;22.90;52.50;;;;;;5190076;28;20325;-71
2021/10/30 08:02:22;;;;;;;5.18;2.70;;;22.90;52.50;;;;;;5194305;28;20056;-71
2021/10/30 08:04:55;;;;;;;8.63;2.75;;;22.90;52.40;;;;;;5190501;28;20590;-69
2021/10/30 08:07:27;;;;;;;5.28;2.35;;;22.90;52.30;;;;;;5189049;28;20052;-70
2021/10/30 08:10:05;;;;;;;4.43;2.60;;;22.90;52.40;;;;;;5195873;28;20417;-70
2021/10/30 08:12:38;;;;;;;5.85;3.03;;;22.90;52.30;;;;;;5197781;28;20056;-70
2021/10/30 08:15:10;;;;;;;5.22;3.10;;;23.00;52.40;;;;;;5183518;28;20045;-70
2021/10/30 08:17:43;;;;;;;10.73;2.85;;;23.00;52.40;;;;;;5182000;28;20049;-70
2021/10/30 08:20:15;;;;;;;8.67;2.80;;;23.00;52.30;;;;;;5187933;28;21205;-71
2021/10/30 08:22:48;;;;;;;7.65;2.92;;;22.90;52.20;;;;;;5195482;28;20041;-70
2021/10/30 08:25:20;;;;;;;14.50;3.22;;;23.00;52.40;;;;;;5194219;28;20059;-70
2021/10/30 08:27:54;;;;;;;11.10;2.90;;;23.00;52.40;;;;;;5191589;28;20056;-70
2021/10/30 08:30:27;;;;;;;12.45;3.13;;;23.00;52.40;;;;;;5188472;28;20487;-71
2021/10/30 08:32:59;;;;;;;4.43;2.93;;;23.00;52.40;;;;;;5193534;28;20053;-70
2021/10/30 08:35:31;;;;;;;12.05;4.10;;;23.00;52.40;;;;;;5193855;28;20036;-71
2021/10/30 08:38:08;;;;;;;5.43;2.67;;;23.00;52.40;;;;;;5190105;28;20049;-71
2021/10/30 08:40:41;;;;;;;5.38;2.85;;;23.00;52.30;;;;;;5191328;28;20045;-71
2021/10/30 08:43:20;;;;;;;5.73;2.80;;;23.00;52.30;;;;;;5196074;28;20049;-71
2021/10/30 08:45:54;;;;;;;10.48;3.00;;;23.00;52.20;;;;;;5197459;28;20501;-71
2021/10/30 08:48:31;;;;;;;12.63;3.53;;;23.00;52.30;;;;;;5190290;28;21632;-70
2021/10/30 08:51:04;;;;;;;5.78;2.97;;;23.00;52.20;;;;;;5189641;28;20048;-70
2021/10/30 08:53:36;;;;;;;8.45;2.88;;;23.00;52.20;;;;;;5190517;28;20293;-70
2021/10/30 08:56:09;;;;;;;13.48;3.47;;;23.00;52.20;;;;;;5194821;28;20054;-70
2021/10/30 08:58:41;;;;;;;10.33;3.53;;;23.00;52.30;;;;;;5188691;28;20045;-70
2021/10/30 09:01:14;;;;;;;12.40;2.38;;;23.00;52.30;;;;;;5190408;28;20049;-70
2021/10/30 09:04:03;;;;;;;13.10;2.67;;;23.00;52.30;;;;;;5188893;28;20049;-71
2021/10/30 09:06:44;;;;;;;10.90;2.83;;;23.00;52.30;;;;;;5180406;28;20465;-71
2021/10/30 09:09:18;;;;;;;11.05;3.22;;;23.00;52.30;;;;;;5176756;28;20421;-69
2021/10/30 09:12:03;;;;;;;15.13;3.38;;;23.00;52.40;;;;;;5188729;28;20056;-69
2021/10/30 09:14:43;;;;;;;11.20;3.00;;;23.00;52.70;;;;;;5190178;28;20056;-69
2021/10/30 09:17:18;;;;;;;6.13;2.92;;;23.00;52.60;;;;;;5193954;28;20048;-69
2021/10/30 09:19:54;;;;;;;11.93;3.75;;;23.00;52.60;;;;;;5186298;28;21409;-69
2021/10/30 09:22:27;;;;;;;13.40;3.50;;;23.00;52.70;;;;;;5197044;28;20064;-69
2021/10/30 09:25:08;;;;;;;14.17;3.23;;;23.00;52.70;;;;;;5193898;28;20053;-69
2021/10/30 09:27:51;;;;;;;11.02;3.00;;;23.00;52.60;;;;;;5185648;28;20528;-69
2021/10/30 09:30:32;;;;;;;7.80;3.10;;;23.00;52.60;;;;;;5191225;28;20068;-70
2021/10/30 09:33:11;;;;;;;8.73;3.80;;;23.00;52.60;;;;;;5188340;28;20566;-69
2021/10/30 09:35:46;;;;;;;9.20;3.00;;;23.00;52.50;;;;;;5190086;28;20049;-69
2021/10/30 09:38:21;;;;;;;6.65;2.58;;;23.00;52.50;;;;;;5188114;28;20576;-69
2021/10/30 09:40:54;;;;;;;5.28;2.60;;;23.00;52.50;;;;;;5187626;28;20053;-69
2021/10/30 09:43:28;;;;;;;5.93;3.17;;;23.00;52.50;;;;;;5190216;28;20056;-69
2021/10/30 09:46:06;;;;;;;5.03;2.50;;;23.00;52.50;;;;;;5188329;28;20034;-69
2021/10/30 09:48:41;;;;;;;10.57;2.72;;;23.00;52.40;;;;;;5204162;28;20037;-69
2021/10/30 09:51:33;;;;;;;5.80;2.95;;;23.00;52.40;;;;;;5190964;28;20037;-69
2021/10/30 09:54:06;;;;;;;5.32;2.75;;;23.00;52.60;;;;;;5189521;28;20065;-69
2021/10/30 09:56:45;;;;;;;10.75;2.60;;;23.00;52.40;;;;;;5188550;28;20056;-69
2021/10/30 09:59:18;;;;;;;7.70;2.30;;;23.00;52.40;;;;;;5188357;28;20053;-69
2021/10/30 10:01:51;;;;;;;3.15;2.50;;;23.00;52.40;;;;;;5173234;28;20053;-69
2021/10/30 10:04:26;;;;;;;7.10;2.20;;;23.00;52.40;;;;;;5172555;28;20040;-69
2021/10/30 10:07:00;;;;;;;6.30;2.72;;;23.00;52.40;;;;;;5172643;28;20056;-69
2021/10/30 10:09:32;;;;;;;4.45;2.55;;;23.00;52.40;;;;;;5178978;28;20072;-69
2021/10/30 10:12:12;;;;;;;7.70;2.53;;;23.00;53.00;;;;;;5163300;28;20047;-69
2021/10/30 10:14:46;;;;;;;6.13;2.53;;;23.00;52.30;;;;;;5174228;28;20468;-69
2021/10/30 10:17:19;;;;;;;9.40;2.75;;;23.10;52.40;;;;;;5172854;28;20061;-69
2021/10/30 10:19:52;;;;;;;;;;;23.00;52.30;;;;;;5174941;28;20424;-69
2021/10/30 10:22:26;;;;;;;8.13;2.30;;;23.00;52.40;;;;;;5178866;28;19935;-69
2021/10/30 10:25:27;;;;;;;4.88;2.30;;;23.00;52.40;;;;;;5183892;28;20049;-69
2021/10/30 10:28:36;;;;;;;5.80;2.40;;;23.10;52.30;;;;;;5187436;28;20050;-69
2021/10/30 10:31:23;;;;;;;3.50;2.22;;;23.10;52.30;;;;;;5196387;28;20041;-69
2021/10/30 10:34:13;;;;;;;4.82;2.40;;;23.10;52.30;;;;;;5184230;28;20040;-69
2021/10/30 10:36:48;;;;;;;6.85;2.40;;;23.20;52.20;;;;;;5190839;28;20057;-69
2021/10/30 10:39:22;;;;;;;2.90;2.15;;;23.20;52.20;;;;;;5188875;28;20045;-69
2021/10/30 10:41:55;;;;;;;;;;;23.30;52.20;;;;;;5185847;28;20472;-68
2021/10/30 10:44:27;;;;;;;7.10;2.92;;;23.30;52.40;;;;;;5186707;28;19924;-69
2021/10/30 10:47:00;;;;;;;2.75;2.15;;;23.40;52.30;;;;;;5185340;28;20045;-69
2021/10/30 10:49:45;;;;;;;6.03;2.17;;;23.40;52.20;;;;;;5184136;28;20492;-69
2021/10/30 10:52:29;;;;;;;3.88;2.22;;;23.50;52.20;;;;;;5184438;28;20041;-69
2021/10/30 10:55:07;;;;;;;3.80;1.92;;;23.60;52.10;;;;;;5187551;28;20057;-69
2021/10/30 10:57:48;;;;;;;3.15;2.42;;;23.60;51.90;;;;;;5184888;28;20572;-69
2021/10/30 11:00:21;;;;;;;3.13;2.10;;;23.70;51.90;;;;;;5186355;28;20068;-69
2021/10/30 11:02:55;;;;;;;5.10;2.53;;;23.70;51.80;;;;;;5179780;28;20535;-69
2021/10/30 11:05:36;;;;;;;5.65;2.80;;;23.70;51.70;;;;;;5186959;28;20044;-69
2021/10/30 11:08:27;;;;;;;3.40;2.08;;;23.80;51.70;;;;;;5190821;28;20661;-69
2021/10/30 11:11:15;;;;;;;3.55;2.15;;;23.90;51.60;;;;;;5187273;28;20049;-69
2021/10/30 11:14:05;;;;;;;5.28;2.40;;;23.90;51.50;;;;;;5187486;28;20060;-69
2021/10/30 11:16:44;;;;;;;3.00;1.92;;;23.90;51.50;;;;;;5191252;28;20443;-68
2021/10/30 11:19:37;;;;;;;3.13;2.03;;;23.90;51.40;;;;;;5187824;28;20060;-69
2021/10/30 11:22:15;;;;;;;4.28;1.90;;;23.90;51.30;;;;;;5188301;28;20424;-69
2021/10/30 11:24:56;;;;;;;3.83;2.75;;;23.90;51.40;;;;;;5169640;28;20429;-69
2021/10/30 11:27:28;;;;;;;3.42;2.20;;;23.90;51.30;;;;;;5184506;28;21287;-69
2021/10/30 11:30:04;;;;;;;4.10;2.03;;;23.90;51.30;;;;;;5190641;28;20468;-69
2021/10/30 11:32:36;;;;;;;2.53;1.98;;;23.90;51.30;;;;;;5190992;28;20527;-69
2021/10/30 11:35:12;;;;;;;2.30;1.70;;;23.90;51.30;;;;;;5195174;28;20045;-69
2021/10/30 11:37:45;;;;;;;2.95;2.20;;;23.90;51.30;;;;;;5192023;28;20067;-69
2021/10/30 11:40:17;;;;;;;3.03;1.90;;;23.90;51.30;;;;;;5191984;28;20053;-70
2021/10/30 11:42:54;;;;;;;4.55;2.00;;;23.90;51.50;;;;;;5189905;28;20067;-69
2021/10/30 11:45:27;;;;;;;3.53;1.88;;;23.90;51.40;;;;;;5194483;28;20056;-69
2021/10/30 11:47:59;;;;;;;2.45;2.00;;;23.90;51.40;;;;;;5191459;28;20063;-69
2021/10/30 11:50:31;;;;;;;2.17;1.85;;;23.90;51.50;;;;;;5192958;28;20524;-69
2021/10/30 11:53:04;;;;;;;4.95;2.30;;;23.90;51.40;;;;;;5194011;28;20051;-69
2021/10/30 11:55:48;;;;;;;3.42;1.95;;;23.80;51.30;;;;;;5196059;28;20449;-69
2021/10/30 11:58:34;;;;;;;2.67;2.45;;;23.90;51.40;;;;;;5192886;28;20057;-69
2021/10/30 12:01:24;;;;;;;3.55;2.35;;;23.90;51.40;;;;;;5188838;28;20045;-69
2021/10/30 12:04:01;;;;;;;2.42;1.95;;;23.80;51.40;;;;;;5191395;28;20041;-68
2021/10/30 12:06:56;;;;;;;3.03;1.73;;;23.80;51.30;;;;;;5193561;28;20409;-68
2021/10/30 12:09:34;;;;;;;2.75;1.85;;;23.80;51.50;;;;;;5194462;28;20048;-69
2021/10/30 12:12:10;;;;;;;3.97;1.70;;;23.80;51.50;;;;;;5192820;28;21340;-69
2021/10/30 12:14:54;;;;;;;2.83;1.95;;;23.80;51.50;;;;;;5178655;28;20052;-69
2021/10/30 12:17:35;;;;;;;3.47;1.90;;;23.80;51.50;;;;;;5193676;28;20041;-69
2021/10/30 12:20:10;;;;;;;2.15;1.77;;;23.70;51.50;;;;;;5197751;28;20425;-69
2021/10/30 12:22:44;;;;;;;3.10;1.90;;;23.70;51.60;;;;;;5193357;28;20052;-69
2021/10/30 12:25:26;;;;;;;2.40;1.80;;;23.70;51.60;;;;;;5197729;28;20056;-69
2021/10/30 12:27:59;;;;;;;3.30;1.70;;;23.70;51.70;;;;;;5197581;28;20507;-68
2021/10/30 12:30:34;;;;;;;3.63;2.08;;;23.70;51.70;;;;;;5186709;28;20057;-69
2021/10/30 12:33:16;;;;;;;2.15;1.88;;;23.60;51.70;;;;;;5178971;28;20049;-69
2021/10/30 12:35:50;;;;;;;1.85;1.60;;;23.60;51.70;;;;;;5187886;28;20053;-69
2021/10/30 12:38:24;;;;;;;;;;;23.60;51.80;;;;;;5189772;28;20041;-69
2021/10/30 12:40:57;;;;;;;2.53;2.15;;;23.50;52.50;;;;;;5192335;28;19925;-69
2021/10/30 12:43:33;;;;;;;2.75;1.83;;;23.50;51.90;;;;;;5178230;28;20048;-69
2021/10/30 12:46:05;;;;;;;3.05;2.00;;;23.50;51.90;;;;;;5192548;28;20049;-69
2021/10/30 12:48:43;;;;;;;3.22;1.83;;;23.50;52.00;;;;;;5190896;28;20056;-69
2021/10/30 12:51:25;;;;;;;2.03;1.77;;;23.50;52.00;;;;;;5187941;28;20040;-69
2021/10/30 12:54:04;;;;;;;2.65;1.80;;;23.40;51.90;;;;;;5188539;28;20041;-69
2021/10/30 12:56:42;;;;;;;2.10;1.83;;;23.40;52.00;;;;;;5194484;28;20083;-68
2021/10/30 12:59:15;;;;;;;2.15;1.80;;;23.40;52.00;;;;;;5192278;28;20065;-69
2021/10/30 13:01:53;;;;;;;1.90;1.80;;;23.50;52.10;;;;;;5190317;28;20056;-69
2021/10/30 13:04:34;;;;;;;2.70;1.70;;;23.50;52.00;;;;;;5193631;28;25360;-69
2021/10/30 13:07:09;;;;;;;2.42;1.67;;;23.50;51.90;;;;;;5193785;28;20069;-69
2021/10/30 13:09:42;;;;;;;2.10;1.90;;;23.60;51.90;;;;;;5185647;28;20997;-69
2021/10/30 13:12:14;;;;;;;4.90;1.63;;;23.70;51.80;;;;;;5179129;28;20896;-69
2021/10/30 13:14:47;;;;;;;1.95;1.70;;;23.80;51.70;;;;;;5175767;28;20045;-68
2021/10/30 13:17:20;;;;;;;2.42;1.90;;;23.80;51.60;;;;;;5189534;28;20041;-69
2021/10/30 13:19:52;;;;;;;2.83;1.90;;;23.90;51.60;;;;;;5176149;28;20044;-69
2021/10/30 13:22:25;;;;;;;4.65;2.00;;;23.80;51.50;;;;;;5178398;28;20588;-69